Raporty najbliższych stacji METAR

 

EPPO - Poznan/Lawica, Poland
Odległość od stacji: Zd 102km
Aktualizacja: 19-05-20 12:30
Przeważnie pochmurno
Przeważnie pochmurno
 Wiatr z Ws
Wiatr: Ws 20 km/h
Temperatura: 22°C
Punkt Rosy: 17°C
Wilgotność: 73%
Ciśnienie: 1002 hPa
Zachmurzenie: Przeważnie pochmurno
Widoczność: 10 km
Szczegóły o zachmurzeniu: Przeważnie pochmurno 518 m
2019/05/20 10:30 EPPO 201030Z 10011KT 9999 BKN017 22/17 Q1002
EPLL - Łódź, Ziemia Łódzka, Polska
Odległość od stacji: ES 127km
Aktualizacja: 19-05-20 12:30
niewielkie zachmurzenie
niewielkie zachmurzenie
 Wiatr z WsPdWs
Wiatr: WsPdWs 19 km/h
Temperatura: 24°C
Punkt Rosy: 14°C
Wilgotność: 54%
Ciśnienie: 1003 hPa
Zachmurzenie: niewielkie zachmurzenie
Widoczność: 10 km
Szczegóły o zachmurzeniu: niewielkie zachmurzenie 1280 m
2019/05/20 10:30 EPLL 201030Z 12010KT 080V160 9999 FEW042 24/14 Q1003
EPWR - Wrocław, Dolny Śląsk, Polska
Odległość od stacji: PdZd 198km
Aktualizacja: 19-05-20 12:30
Przeważnie pochmurno
Przeważnie pochmurno
 Wiatr z PdPdWs
Wiatr: PdPdWs 11 km/h
Temperatura: 18°C
Punkt Rosy: 15°C
Wilgotność: 83%
Ciśnienie: 1002 hPa
Zachmurzenie: Przeważnie pochmurno
Widoczność: 10 km
Szczegóły o zachmurzeniu: Częściowe zachmurzenie 366 m
Przeważnie pochmurno 792 m
2019/05/20 10:30 EPWR 201030Z 15006KT 110V180 9999 SCT012 BKN026 18/15 Q1002
 
EPWA - Warszawa, Mazowsze, Polska
Odległość od stacji: Ws 209km
Aktualizacja: 19-05-20 12:30
Przeważnie pochmurno
Przeważnie pochmurno
 Wiatr z PdWs
Wiatr: PdWs 30 km/h
Temperatura: 25°C
Punkt Rosy: 16°C
Wilgotność: 57%
Ciśnienie: 1005 hPa
Zachmurzenie: Przeważnie pochmurno
Widoczność: 10 km
Szczegóły o zachmurzeniu: Przeważnie pochmurno 1067 m
2019/05/20 10:30 EPWA 201030Z 13016KT 9999 BKN035 25/16 Q1005 NOSIG
EPGD - Gdańsk, Pomorze, Polska
Odległość od stacji: Pn 253km
Aktualizacja: 19-05-20 12:30
Bezchmurnie
Bezchmurnie
 Wiatr z PnWs
Wiatr: PnWs 20 km/h
Temperatura: 21°C
Punkt Rosy: 17°C
Wilgotność: 78%
Ciśnienie: 1006 hPa
Podsumowanie: Bezchmurnie
Widoczność: większa niż 10 km
2019/05/20 10:30 EPGD 201030Z 05011KT CAVOK 21/17 Q1006
EPKT - Katowice, Śląsk, Polska
Odległość od stacji: Pd 270km
Aktualizacja: 19-05-20 12:30
Bezchmurnie
Bezchmurnie
 Wiatr z PdPdZd
Wiatr: PdPdZd 30 km/h
Temperatura: 19°C
Punkt Rosy: 10°C
Wilgotność: 56%
Ciśnienie: 1005 hPa
Podsumowanie: Bezchmurnie
Widoczność: większa niż 10 km
2019/05/20 10:30 EPKT 201030Z 21016KT CAVOK 19/10 Q1005
 
EPSC - Szczecin, Pomorze Zachodnie, Polska
Odległość od stacji: PnZd 329km
Aktualizacja: 19-05-20 12:30
niewielkie zachmurzenie
niewielkie zachmurzenie
 Wiatr z Ws
Wiatr: Ws 19 km/h
Temperatura: 24°C
Punkt Rosy: 15°C
Wilgotność: 57%
Ciśnienie: 1003 hPa
Zachmurzenie: niewielkie zachmurzenie
Widoczność: 10 km
Szczegóły o zachmurzeniu: niewielkie zachmurzenie 1158 m
2019/05/20 10:30 EPSC 201030Z 09010KT 050V110 9999 FEW038 24/15 Q1003
EPBY - Bydgoszcz
Odległość od stacji: Pn 95km
Aktualizacja: 19-05-20 12:30
Przeważnie pochmurno
Przeważnie pochmurno
 Wiatr z Ws
Wiatr: Ws 24 km/h
Temperatura: 23°C
Punkt Rosy: 18°C
Wilgotność: 74%
Ciśnienie: 1003 hPa
Zachmurzenie: Przeważnie pochmurno
Widoczność: 10 km
Szczegóły o zachmurzeniu: Częściowe zachmurzenie 792 m
Przeważnie pochmurno 914 m
2019/05/20 10:30 EPBY 201030Z 08013KT 050V110 9999 SCT026 BKN030 23/18 Q1003
EPZG - Zielona Góra, Ziemia Lubuska, Polska
Odległość od stacji: ZdPdZa 235km
Aktualizacja: 19-05-20 12:30
Częściowe zachmurzenie
Częściowe zachmurzenie
 Wiatr z PnWs
Wiatr: PnWs 19 km/h
Temperatura: 22°C
Punkt Rosy: 17°C
Wilgotność: 73%
Ciśnienie: 1002 hPa
Zachmurzenie: Częściowe zachmurzenie
Widoczność: 10 km
Szczegóły o zachmurzeniu: Częściowe zachmurzenie 853 m
2019/05/20 10:30 EPZG 201030Z 04010KT 010V070 9999 SCT028 22/17 Q1002